Quincy, Illinois
Current Conditions -  °F | °C
As of 2:54 AM on Wednesday 28 Jan 2015 (Local Time) from KUIN Reporting Station
Haze Haze  
Wind Chill: 19°   Ceiling: Unl
Heat Index: 28°   Visibility: 4mi
Dew Point: 25°   Wind: 9mph
Humidity: 88%   Direction: 130°SE
Pressure: 30.2"   Gusts: NA
Location:  39.94°N, 91.39°W
Report Text: KUIN 280854Z AUTO 13008KT 4SM BR CLR M02/M04 A3020 RMK AO2 SLP233 T10221039 56006
Loading
Personal Weather Stations






























Interactive Weather Map New forecast layout! Learn more

10-Day Weather Forecast

Advertisements
Track Severe Weather on mobile